createdAt,value
2019-04-03T00:00:15.426Z,11.16
2019-04-03T00:01:16.854Z,11.19
2019-04-03T00:02:18.212Z,11.23
2019-04-03T00:03:19.613Z,11.20
2019-04-03T00:04:20.997Z,11.21
2019-04-03T00:05:22.384Z,11.20
2019-04-03T00:06:23.771Z,11.23
2019-04-03T00:07:25.161Z,11.23
2019-04-03T00:08:26.557Z,11.20
2019-04-03T00:09:27.942Z,11.20
2019-04-03T00:10:29.388Z,11.19
2019-04-03T00:11:30.715Z,11.24
2019-04-03T00:12:32.111Z,11.23
2019-04-03T00:13:33.607Z,11.27
2019-04-03T00:14:34.841Z,11.30
2019-04-03T00:15:36.229Z,11.36
2019-04-03T00:16:37.680Z,11.24
2019-04-03T00:17:38.993Z,11.30
2019-04-03T00:18:40.552Z,11.30
2019-04-03T00:19:41.725Z,11.27
2019-04-03T00:20:43.116Z,11.26
2019-04-03T00:21:44.516Z,11.24
2019-04-03T00:22:46.606Z,11.28
2019-04-03T00:23:47.264Z,11.27
2019-04-03T00:24:48.648Z,11.26
2019-04-03T00:25:52.006Z,11.23
2019-04-03T00:26:52.690Z,11.17
2019-04-03T00:27:52.941Z,11.20
2019-04-03T00:28:54.070Z,11.16
2019-04-03T00:29:55.458Z,11.20
2019-04-03T00:30:56.867Z,11.11
2019-04-03T00:31:58.244Z,11.12
2019-04-03T00:32:59.650Z,11.09
2019-04-03T00:34:01.052Z,11.06
2019-04-03T00:35:02.618Z,11.09
2019-04-03T00:36:03.777Z,11.08
2019-04-03T00:37:05.174Z,11.09
2019-04-03T00:38:06.571Z,11.05
2019-04-03T00:39:07.968Z,11.12
2019-04-03T00:40:09.359Z,11.06
2019-04-03T00:41:10.745Z,11.08
2019-04-03T00:42:12.128Z,10.99
2019-04-03T00:43:13.660Z,10.99
2019-04-03T00:44:14.866Z,10.93
2019-04-03T00:45:16.249Z,10.95
2019-04-03T00:46:17.633Z,10.95
2019-04-03T00:47:19.131Z,11.01
2019-04-03T00:48:20.375Z,11.03
2019-04-03T00:49:21.766Z,11.03
2019-04-03T00:50:23.162Z,10.99
2019-04-03T00:51:27.180Z,10.90
2019-04-03T00:52:27.518Z,10.88
2019-04-03T00:53:27.667Z,10.94
2019-04-03T00:54:30.738Z,10.90
2019-04-03T00:55:29.936Z,10.86
2019-04-03T00:56:31.327Z,10.90
2019-04-03T00:57:32.714Z,10.88
2019-04-03T00:58:34.100Z,10.94
2019-04-03T00:59:35.486Z,10.90
2019-04-03T01:00:36.909Z,10.81
2019-04-03T01:01:38.231Z,10.78
2019-04-03T01:02:39.606Z,10.75
2019-04-03T01:03:40.998Z,10.75
2019-04-03T01:04:42.374Z,10.76
2019-04-03T01:05:43.866Z,10.78
2019-04-03T01:06:45.109Z,10.73
2019-04-03T01:07:46.503Z,10.72
2019-04-03T01:08:47.892Z,10.68
2019-04-03T01:09:49.341Z,10.66
2019-04-03T01:10:50.675Z,10.66
2019-04-03T01:11:52.077Z,10.54
2019-04-03T01:12:53.452Z,10.55
2019-04-03T01:13:54.839Z,10.55
2019-04-03T01:14:56.234Z,10.52
2019-04-03T01:15:57.718Z,10.43
2019-04-03T01:16:59.266Z,10.44
2019-04-03T01:18:00.319Z,10.47
2019-04-03T01:19:01.746Z,10.46
2019-04-03T01:20:03.093Z,10.43
2019-04-03T01:21:06.280Z,10.36
2019-04-03T01:22:07.353Z,10.39
2019-04-03T01:23:07.731Z,10.38
2019-04-03T01:24:08.590Z,10.32
2019-04-03T01:25:09.877Z,10.36
2019-04-03T01:26:11.370Z,10.32
2019-04-03T01:27:12.629Z,10.31
2019-04-03T01:28:14.012Z,10.29
2019-04-03T01:29:15.392Z,10.35
2019-04-03T01:30:16.778Z,10.26
2019-04-03T01:31:18.160Z,10.28
2019-04-03T01:32:19.553Z,10.24
2019-04-03T01:33:20.947Z,10.25
2019-04-03T01:34:22.325Z,10.26
2019-04-03T01:35:23.782Z,10.20
2019-04-03T01:36:25.062Z,10.14
2019-04-03T01:37:26.451Z,10.20
2019-04-03T01:38:27.845Z,10.13
2019-04-03T01:39:29.235Z,10.07
2019-04-03T01:40:30.625Z,10.07
2019-04-03T01:41:32.015Z,10.07
2019-04-03T01:42:33.403Z,10.09
2019-04-03T01:43:34.783Z,10.09
2019-04-03T01:44:36.207Z,10.06
2019-04-03T01:45:37.557Z,9.96
2019-04-03T01:46:38.945Z,10.02
2019-04-03T01:47:40.333Z,9.98
2019-04-03T01:48:41.719Z,10.01
2019-04-03T01:49:43.108Z,10.01
2019-04-03T01:50:44.501Z,9.96
2019-04-03T01:51:46.035Z,9.98
2019-04-03T01:52:47.226Z,9.88
2019-04-03T01:53:48.618Z,9.89
2019-04-03T01:54:50.169Z,9.88
2019-04-03T01:55:51.348Z,9.92
2019-04-03T01:56:52.727Z,9.95
2019-04-03T01:57:54.120Z,9.89
2019-04-03T01:58:55.588Z,9.89
2019-04-03T01:59:56.856Z,9.89
2019-04-03T02:00:58.246Z,9.92
2019-04-03T02:01:59.645Z,9.81
2019-04-03T02:03:02.160Z,9.83
2019-04-03T02:04:02.366Z,9.85
2019-04-03T02:05:03.751Z,9.77
2019-04-03T02:06:05.137Z,9.68
2019-04-03T02:07:06.619Z,9.71
2019-04-03T02:08:07.871Z,9.78
2019-04-03T02:09:09.247Z,9.74
2019-04-03T02:10:10.637Z,9.74
2019-04-03T02:11:12.016Z,9.74
2019-04-03T02:12:13.402Z,9.71
2019-04-03T02:13:14.794Z,9.71
2019-04-03T02:14:16.185Z,9.78
2019-04-03T02:15:17.578Z,9.77
2019-04-03T02:16:18.955Z,9.75
2019-04-03T02:17:21.847Z,9.71
2019-04-03T02:18:21.684Z,9.74
2019-04-03T02:19:25.755Z,9.75
2019-04-03T02:20:26.126Z,9.70
2019-04-03T02:21:27.618Z,9.73
2019-04-03T02:22:28.958Z,9.75
2019-04-03T02:23:28.943Z,9.71
2019-04-03T02:24:31.450Z,9.77
2019-04-03T02:25:32.179Z,9.73
2019-04-03T02:26:33.018Z,9.65
2019-04-03T02:27:33.889Z,9.73
2019-04-03T02:28:35.278Z,9.70
2019-04-03T02:29:37.986Z,9.60
2019-04-03T02:30:37.882Z,9.75
2019-04-03T02:31:39.276Z,9.80
2019-04-03T02:32:40.661Z,9.75
2019-04-03T02:33:42.046Z,9.74
2019-04-03T02:34:43.451Z,9.73
2019-04-03T02:35:44.820Z,9.67
2019-04-03T02:36:46.520Z,9.62
2019-04-03T02:37:49.608Z,9.75
2019-04-03T02:38:48.925Z,9.75
2019-04-03T02:39:50.285Z,9.75
2019-04-03T02:40:51.680Z,9.74
2019-04-03T02:41:53.067Z,9.71
2019-04-03T02:42:54.449Z,9.73
2019-04-03T02:43:55.844Z,9.74
2019-04-03T02:44:57.332Z,9.67
2019-04-03T02:45:58.579Z,9.77
2019-04-03T02:47:01.148Z,9.73
2019-04-03T02:48:04.804Z,9.73
2019-04-03T02:49:02.677Z,9.62
2019-04-03T02:50:04.060Z,9.78
2019-04-03T02:51:05.442Z,9.67
2019-04-03T02:52:06.830Z,9.65
2019-04-03T02:53:08.211Z,9.62
2019-04-03T02:54:09.601Z,9.62
2019-04-03T02:55:10.994Z,9.62
2019-04-03T02:56:13.374Z,9.71
2019-04-03T02:57:16.284Z,9.68
2019-04-03T02:58:15.035Z,9.67
2019-04-03T02:59:16.678Z,9.70
2019-04-03T03:00:17.767Z,9.60
2019-04-03T03:01:19.159Z,9.75
2019-04-03T03:02:20.546Z,9.65
2019-04-03T03:03:21.931Z,9.75
2019-04-03T03:04:23.315Z,9.75
2019-04-03T03:05:27.320Z,9.73
2019-04-03T03:06:26.071Z,9.71
2019-04-03T03:07:27.682Z,9.74
2019-04-03T03:08:28.931Z,9.83
2019-04-03T03:09:30.145Z,9.86
2019-04-03T03:10:31.896Z,9.73
2019-04-03T03:11:32.884Z,9.83
2019-04-03T03:12:34.264Z,9.85
2019-04-03T03:13:35.839Z,9.85
2019-04-03T03:14:39.514Z,9.83
2019-04-03T03:15:38.355Z,9.73
2019-04-03T03:16:39.734Z,9.86
2019-04-03T03:17:41.117Z,9.83
2019-04-03T03:18:43.493Z,9.78
2019-04-03T03:19:44.832Z,9.75
2019-04-03T03:20:46.296Z,9.74
2019-04-03T03:21:47.403Z,9.89
2019-04-03T03:22:50.542Z,9.70
2019-04-03T03:23:50.198Z,9.77
2019-04-03T03:24:51.771Z,9.77
2019-04-03T03:25:52.888Z,9.75
2019-04-03T03:26:54.274Z,9.75
2019-04-03T03:27:55.665Z,9.70
2019-04-03T03:28:57.052Z,9.68
2019-04-03T03:29:59.718Z,9.59
2019-04-03T03:31:03.670Z,9.63
2019-04-03T03:32:11.575Z,9.78
2019-04-03T03:33:24.830Z,9.63
2019-04-03T03:34:05.281Z,9.73
2019-04-03T03:35:12.385Z,9.73
2019-04-03T03:36:07.175Z,9.75
2019-04-03T03:37:11.869Z,9.73
2019-04-03T03:38:09.387Z,9.67
2019-04-03T03:39:11.527Z,9.74
2019-04-03T03:40:15.031Z,9.75
2019-04-03T03:41:13.471Z,9.73
2019-04-03T03:42:14.859Z,9.74
2019-04-03T03:43:16.577Z,9.71
2019-04-03T03:44:17.625Z,9.78
2019-04-03T03:45:20.611Z,9.80
2019-04-03T03:46:20.388Z,9.80
2019-04-03T03:47:21.772Z,9.74
2019-04-03T03:48:23.169Z,9.74
2019-04-03T03:49:24.562Z,9.78
2019-04-03T03:50:26.057Z,9.74
2019-04-03T03:51:29.794Z,9.73
2019-04-03T03:52:28.689Z,9.74
2019-04-03T03:53:30.247Z,9.63
2019-04-03T03:54:31.770Z,9.67
2019-04-03T03:55:32.759Z,9.68
2019-04-03T03:56:34.159Z,9.63
2019-04-03T03:57:38.001Z,9.56
2019-04-03T03:58:36.940Z,9.63
2019-04-03T03:59:38.432Z,9.65
2019-04-03T04:00:39.801Z,9.65
2019-04-03T04:01:41.011Z,9.62
2019-04-03T04:02:44.396Z,9.70
2019-04-03T04:03:43.743Z,9.58
2019-04-03T04:04:48.064Z,9.59
2019-04-03T04:05:46.479Z,9.62
2019-04-03T04:06:47.889Z,9.55
2019-04-03T04:07:49.270Z,9.53
2019-04-03T04:08:50.657Z,9.49
2019-04-03T04:09:52.525Z,9.59
2019-04-03T04:10:55.393Z,9.59
2019-04-03T04:11:54.758Z,9.58
2019-04-03T04:12:56.155Z,9.50
2019-04-03T04:13:57.556Z,9.50
2019-04-03T04:14:58.907Z,9.60
2019-04-03T04:16:03.205Z,9.49
2019-04-03T04:17:01.719Z,9.52
2019-04-03T04:18:03.092Z,9.56
2019-04-03T04:19:04.497Z,9.53
2019-04-03T04:20:06.257Z,9.50
2019-04-03T04:21:09.397Z,9.56
2019-04-03T04:22:08.735Z,9.50
2019-04-03T04:23:09.925Z,9.49
2019-04-03T04:24:11.318Z,9.59
2019-04-03T04:25:12.712Z,9.58
2019-04-03T04:26:14.112Z,9.56
2019-04-03T04:27:15.614Z,9.50
2019-04-03T04:28:17.038Z,9.62
2019-04-03T04:29:18.373Z,9.55
2019-04-03T04:30:19.640Z,9.52
2019-04-03T04:31:20.989Z,9.52
2019-04-03T04:32:22.377Z,9.62
2019-04-03T04:33:23.771Z,9.56
2019-04-03T04:34:25.168Z,9.59
2019-04-03T04:35:26.582Z,9.62
2019-04-03T04:36:27.972Z,9.50
2019-04-03T04:37:29.373Z,9.52
2019-04-03T04:38:30.765Z,9.52
2019-04-03T04:39:32.170Z,9.59
2019-04-03T04:40:33.706Z,9.60
2019-04-03T04:41:34.920Z,9.55
2019-04-03T04:42:36.308Z,9.59
2019-04-03T04:43:39.378Z,9.52
2019-04-03T04:44:40.804Z,9.56
2019-04-03T04:45:40.814Z,9.59
2019-04-03T04:46:43.594Z,9.58
2019-04-03T04:47:45.702Z,9.52
2019-04-03T04:48:44.466Z,9.59
2019-04-03T04:49:45.868Z,9.63
2019-04-03T04:50:47.287Z,9.62
2019-04-03T04:51:48.638Z,9.63
2019-04-03T04:52:50.031Z,9.63
2019-04-03T04:53:51.426Z,9.55
2019-04-03T04:54:52.811Z,9.58
2019-04-03T04:55:54.371Z,9.63
2019-04-03T04:56:55.549Z,9.63
2019-04-03T04:57:56.946Z,9.62
2019-04-03T04:58:58.337Z,9.62
2019-04-03T04:59:59.762Z,9.58
2019-04-03T05:01:01.109Z,9.59
2019-04-03T05:02:02.539Z,9.67
2019-04-03T05:03:03.899Z,9.67
2019-04-03T05:04:05.299Z,9.67
2019-04-03T05:05:08.720Z,9.62
2019-04-03T05:06:08.041Z,9.65
2019-04-03T05:07:09.431Z,9.65
2019-04-03T05:08:10.850Z,9.63
2019-04-03T05:09:12.245Z,9.63
2019-04-03T05:10:13.625Z,9.65
2019-04-03T05:11:15.010Z,9.68
2019-04-03T05:12:16.459Z,9.75
2019-04-03T05:13:17.857Z,9.74
2019-04-03T05:14:19.154Z,9.75
2019-04-03T05:15:23.262Z,9.77
2019-04-03T05:16:24.333Z,9.75
2019-04-03T05:17:24.628Z,9.74
2019-04-03T05:18:24.624Z,9.78
2019-04-03T05:19:26.018Z,9.78
2019-04-03T05:20:27.406Z,9.81
2019-04-03T05:21:28.788Z,9.80
2019-04-03T05:22:30.181Z,9.81
2019-04-03T05:23:31.574Z,9.78
2019-04-03T05:24:33.034Z,9.83
2019-04-03T05:25:34.513Z,9.83
2019-04-03T05:26:35.663Z,9.88
2019-04-03T05:27:37.047Z,9.80
2019-04-03T05:28:38.429Z,9.81
2019-04-03T05:29:39.813Z,9.88
2019-04-03T05:30:41.205Z,9.80
2019-04-03T05:31:42.748Z,9.80
2019-04-03T05:32:43.946Z,9.83
2019-04-03T05:33:45.340Z,9.88
2019-04-03T05:34:46.907Z,9.92
2019-04-03T05:35:48.085Z,9.92
2019-04-03T05:36:49.471Z,9.93
2019-04-03T05:37:51.530Z,9.93
2019-04-03T05:38:53.533Z,9.91
2019-04-03T05:39:54.997Z,9.91
2019-04-03T05:40:56.316Z,9.91
2019-04-03T05:41:58.514Z,9.88
2019-04-03T05:42:59.253Z,9.96
2019-04-03T05:44:01.443Z,9.77
2019-04-03T05:45:00.403Z,10.02
2019-04-03T05:46:02.057Z,9.95
2019-04-03T05:47:03.273Z,10.01
2019-04-03T05:48:05.103Z,9.91
2019-04-03T05:49:06.035Z,10.01
2019-04-03T05:50:07.452Z,10.01
2019-04-03T05:51:08.840Z,10.06
2019-04-03T05:52:10.247Z,10.04
2019-04-03T05:53:11.648Z,10.11
2019-04-03T05:54:14.640Z,10.10
2019-04-03T05:55:14.469Z,10.17
2019-04-03T05:56:15.814Z,10.17
2019-04-03T05:57:17.340Z,10.20
2019-04-03T05:58:18.593Z,10.32
2019-04-03T05:59:20.095Z,10.25
2019-04-03T06:00:21.548Z,10.24
2019-04-03T06:01:22.769Z,10.32
2019-04-03T06:02:24.178Z,10.31
2019-04-03T06:03:37.899Z,10.31
2019-04-03T06:04:27.003Z,10.38
2019-04-03T06:05:28.434Z,10.38
2019-04-03T06:06:29.870Z,10.38
2019-04-03T06:07:31.265Z,10.47
2019-04-03T06:08:34.538Z,10.46
2019-04-03T06:09:34.204Z,10.43
2019-04-03T06:10:37.461Z,10.49
2019-04-03T06:11:39.732Z,10.44
2019-04-03T06:12:38.384Z,10.49
2019-04-03T06:13:39.964Z,10.54
2019-04-03T06:14:41.357Z,10.51
2019-04-03T06:15:42.804Z,10.63
2019-04-03T06:16:44.107Z,10.60
2019-04-03T06:17:45.490Z,10.60
2019-04-03T06:18:47.700Z,10.66
2019-04-03T06:19:48.239Z,10.80
2019-04-03T06:20:49.669Z,10.76
2019-04-03T06:21:51.305Z,10.95
2019-04-03T06:22:52.416Z,10.91
2019-04-03T06:23:54.009Z,10.98
2019-04-03T06:24:56.447Z,11.01
2019-04-03T06:25:56.487Z,11.06
2019-04-03T06:26:58.070Z,11.12
2019-04-03T06:27:59.241Z,11.12
2019-04-03T06:29:00.771Z,11.17
2019-04-03T06:30:02.088Z,11.16
2019-04-03T06:31:03.420Z,11.17
2019-04-03T06:32:06.039Z,11.24
2019-04-03T06:33:06.071Z,11.30
2019-04-03T06:34:08.093Z,11.27
2019-04-03T06:35:08.817Z,11.33
2019-04-03T06:36:10.219Z,11.27
2019-04-03T06:37:11.615Z,11.41
2019-04-03T06:38:13.015Z,11.41
2019-04-03T06:39:14.499Z,11.36
2019-04-03T06:40:15.760Z,11.44
2019-04-03T06:41:17.193Z,11.45
2019-04-03T06:42:18.697Z,11.49
2019-04-03T06:43:19.922Z,11.54
2019-04-03T06:44:22.543Z,11.44
2019-04-03T06:45:25.440Z,11.60
2019-04-03T06:46:24.011Z,11.70
2019-04-03T06:47:25.415Z,11.81
2019-04-03T06:48:26.803Z,11.79
2019-04-03T06:49:28.194Z,11.90
2019-04-03T06:50:29.597Z,11.97
2019-04-03T06:51:31.111Z,12.22
2019-04-03T06:52:32.344Z,12.46
2019-04-03T06:53:33.732Z,12.77
2019-04-03T06:54:35.213Z,12.98
2019-04-03T06:55:36.590Z,13.28
2019-04-03T06:56:39.895Z,13.35
2019-04-03T06:57:39.830Z,13.53
2019-04-03T06:58:43.312Z,13.62
2019-04-03T06:59:41.910Z,13.62
2019-04-03T07:00:43.301Z,13.63
2019-04-03T07:01:44.697Z,13.87
2019-04-03T07:02:46.324Z,13.99
2019-04-03T07:03:47.454Z,14.20
2019-04-03T07:04:48.844Z,14.36
2019-04-03T07:05:50.244Z,14.46
2019-04-03T07:06:51.639Z,14.52
2019-04-03T07:07:53.049Z,14.59
2019-04-03T07:08:54.431Z,14.74
2019-04-03T07:09:55.822Z,14.90
2019-04-03T07:10:57.224Z,15.18
2019-04-03T07:11:58.616Z,15.70
2019-04-03T07:13:00.014Z,15.98
2019-04-03T07:14:01.407Z,16.03
2019-04-03T07:15:03.039Z,16.42
2019-04-03T07:16:04.172Z,16.62
2019-04-03T07:17:05.986Z,16.85
2019-04-03T07:18:06.925Z,17.18
2019-04-03T07:19:08.664Z,17.28
2019-04-03T07:20:14.582Z,17.36
2019-04-03T07:21:11.053Z,17.76
2019-04-03T07:22:12.455Z,18.04
2019-04-03T07:23:13.857Z,18.42
2019-04-03T07:24:15.489Z,18.64
2019-04-03T07:25:16.854Z,19.05
2019-04-03T07:26:17.987Z,19.45
2019-04-03T07:27:19.387Z,19.78
2019-04-03T07:28:20.885Z,20.23
2019-04-03T07:29:24.645Z,20.72
2019-04-03T07:30:23.509Z,21.13
2019-04-03T07:31:24.969Z,21.55
2019-04-03T07:32:26.295Z,21.75
2019-04-03T07:33:28.654Z,22.14
2019-04-03T07:34:29.045Z,22.46
2019-04-03T07:35:30.458Z,22.63
2019-04-03T07:36:32.187Z,23.07
2019-04-03T07:37:33.216Z,23.12
2019-04-03T07:38:34.610Z,22.96
2019-04-03T07:39:36.176Z,22.78
2019-04-03T07:40:37.616Z,22.70
2019-04-03T07:41:40.909Z,22.82
2019-04-03T07:42:40.113Z,22.84
2019-04-03T07:43:41.516Z,23.14
2019-04-03T07:44:42.924Z,23.56
2019-04-03T07:45:44.329Z,24.00
2019-04-03T07:46:45.730Z,24.55
2019-04-03T07:47:47.141Z,25.08
2019-04-03T07:48:48.560Z,25.29
2019-04-03T07:49:49.965Z,25.45
2019-04-03T07:50:51.377Z,25.16
2019-04-03T07:51:52.996Z,24.80
2019-04-03T07:52:54.173Z,24.60
2019-04-03T07:53:55.573Z,24.41
2019-04-03T07:54:57.221Z,23.92
2019-04-03T07:55:58.540Z,23.54
2019-04-03T07:56:59.796Z,23.47
2019-04-03T07:58:01.581Z,23.37
2019-04-03T07:59:02.985Z,23.41
2019-04-03T08:00:06.103Z,23.56
2019-04-03T08:01:05.166Z,23.81
2019-04-03T08:02:06.587Z,24.09
2019-04-03T08:03:08.193Z,24.46
2019-04-03T08:04:09.346Z,24.61
2019-04-03T08:05:10.750Z,24.60
2019-04-03T08:06:12.164Z,24.49
2019-04-03T08:07:13.570Z,24.33
2019-04-03T08:08:14.980Z,24.42
2019-04-03T08:09:16.656Z,24.41
2019-04-03T08:10:17.755Z,24.39
2019-04-03T08:11:19.161Z,24.31
2019-04-03T08:12:20.782Z,24.23
2019-04-03T08:13:22.214Z,24.26
2019-04-03T08:14:23.461Z,24.84
2019-04-03T08:15:24.875Z,25.46
2019-04-03T08:16:26.101Z,26.23
2019-04-03T08:17:27.961Z,26.78
2019-04-03T08:18:28.886Z,27.39
2019-04-03T08:19:30.294Z,27.69
2019-04-03T08:20:31.699Z,28.08
2019-04-03T08:21:33.118Z,28.09
2019-04-03T08:22:34.634Z,28.08
2019-04-03T08:23:36.765Z,28.18
2019-04-03T08:24:39.210Z,28.32
2019-04-03T08:25:38.630Z,28.80
2019-04-03T08:26:40.322Z,28.73
2019-04-03T08:27:41.424Z,28.70
2019-04-03T08:28:42.832Z,28.89
2019-04-03T08:29:44.456Z,29.18
2019-04-03T08:30:45.724Z,28.88
2019-04-03T08:31:48.363Z,29.02
2019-04-03T08:32:48.977Z,29.41
2019-04-03T08:33:49.720Z,29.51
2019-04-03T08:34:51.126Z,29.62
2019-04-03T08:35:52.548Z,29.10
2019-04-03T08:36:54.195Z,28.50
2019-04-03T08:37:55.660Z,28.21
2019-04-03T08:38:56.686Z,28.13
2019-04-03T08:39:58.779Z,28.08
2019-04-03T08:40:59.458Z,28.70
2019-04-03T08:42:00.863Z,28.87
2019-04-03T08:43:02.272Z,29.23
2019-04-03T08:44:06.115Z,29.55
2019-04-03T08:45:06.588Z,29.89
2019-04-03T08:46:09.355Z,30.15
2019-04-03T08:47:07.923Z,30.67
2019-04-03T08:48:09.173Z,31.10
2019-04-03T08:49:10.574Z,31.74
2019-04-03T08:50:11.989Z,31.62
2019-04-03T08:51:13.407Z,31.90
2019-04-03T08:52:15.018Z,32.22
2019-04-03T08:53:16.190Z,32.32
2019-04-03T08:54:17.602Z,32.14
2019-04-03T08:55:19.194Z,32.50
2019-04-03T08:56:20.397Z,32.41
2019-04-03T08:57:21.806Z,32.54
2019-04-03T08:58:25.401Z,32.80
2019-04-03T08:59:24.915Z,33.02
2019-04-03T09:00:25.979Z,32.90
2019-04-03T09:01:27.661Z,33.17
2019-04-03T09:02:28.756Z,33.52
2019-04-03T09:03:30.172Z,34.05
2019-04-03T09:04:31.587Z,34.23
2019-04-03T09:05:33.006Z,34.15
2019-04-03T09:06:34.412Z,34.14
2019-04-03T09:07:35.992Z,34.42
2019-04-03T09:08:37.212Z,34.37
2019-04-03T09:09:38.623Z,34.76
2019-04-03T09:10:40.033Z,34.91
2019-04-03T09:11:41.449Z,34.16
2019-04-03T09:12:42.858Z,34.05
2019-04-03T09:13:44.266Z,34.03
2019-04-03T09:14:45.683Z,33.90
2019-04-03T09:15:47.099Z,34.19
2019-04-03T09:16:48.509Z,34.42
2019-04-03T09:17:49.923Z,34.48
2019-04-03T09:18:52.367Z,34.46
2019-04-03T09:19:56.026Z,34.38
2019-04-03T09:20:55.017Z,33.72
2019-04-03T09:21:56.453Z,33.70
2019-04-03T09:22:57.837Z,33.71
2019-04-03T09:23:59.250Z,33.29
2019-04-03T09:25:01.003Z,32.98
2019-04-03T09:26:03.404Z,32.54
2019-04-03T09:27:03.419Z,32.28
2019-04-03T09:28:05.189Z,32.24
2019-04-03T09:29:06.217Z,32.24
2019-04-03T09:30:07.618Z,32.05
2019-04-03T09:31:09.033Z,31.74
2019-04-03T09:32:10.459Z,31.50
2019-04-03T09:33:11.867Z,31.57
2019-04-03T09:34:13.286Z,31.69
2019-04-03T09:35:14.694Z,31.35
2019-04-03T09:36:16.112Z,31.59
2019-04-03T09:37:17.910Z,31.52
2019-04-03T09:38:18.896Z,31.84
2019-04-03T09:39:20.318Z,31.71
2019-04-03T09:40:21.739Z,31.57
2019-04-03T09:41:23.146Z,31.03
2019-04-03T09:42:24.559Z,30.90
2019-04-03T09:43:25.964Z,30.90
2019-04-03T09:44:27.522Z,30.28
2019-04-03T09:45:29.093Z,29.62
2019-04-03T09:46:31.508Z,28.67
2019-04-03T09:47:31.685Z,27.81
2019-04-03T09:48:33.101Z,27.18
2019-04-03T09:49:34.510Z,26.59
2019-04-03T09:50:35.739Z,26.28
2019-04-03T09:51:37.060Z,26.13
2019-04-03T09:52:46.113Z,25.79
2019-04-03T09:53:39.946Z,25.78
2019-04-03T09:54:41.077Z,25.46
2019-04-03T09:55:42.488Z,25.69
2019-04-03T09:56:57.145Z,26.01
2019-04-03T09:57:45.561Z,26.01
2019-04-03T09:58:47.013Z,25.82
2019-04-03T09:59:48.281Z,25.98
2019-04-03T10:00:49.900Z,25.78
2019-04-03T10:01:50.777Z,25.44
2019-04-03T10:02:52.200Z,25.42
2019-04-03T10:03:55.077Z,25.39
2019-04-03T10:04:57.314Z,25.67
2019-04-03T10:05:56.460Z,25.90
2019-04-03T10:06:57.706Z,26.12
2019-04-03T10:07:59.330Z,26.24
2019-04-03T10:09:00.490Z,26.49
2019-04-03T10:10:01.942Z,26.13
2019-04-03T10:11:03.520Z,25.69
2019-04-03T10:12:04.672Z,25.24
2019-04-03T10:13:06.081Z,24.87
2019-04-03T10:14:07.511Z,24.60
2019-04-03T10:15:08.949Z,24.44
2019-04-03T10:16:10.390Z,24.18
2019-04-03T10:17:11.942Z,23.93
2019-04-03T10:18:13.150Z,23.62
2019-04-03T10:19:14.717Z,23.32
2019-04-03T10:20:17.289Z,23.44
2019-04-03T10:21:17.795Z,23.54
2019-04-03T10:22:18.755Z,23.71
2019-04-03T10:23:20.158Z,24.06
2019-04-03T10:24:21.598Z,24.56
2019-04-03T10:25:23.008Z,24.71
2019-04-03T10:26:24.420Z,24.59
2019-04-03T10:27:25.842Z,24.52
2019-04-03T10:28:27.569Z,24.51
2019-04-03T10:29:28.630Z,24.39
2019-04-03T10:30:30.047Z,24.37
2019-04-03T10:31:31.474Z,24.24
2019-04-03T10:32:32.876Z,24.04
2019-04-03T10:33:34.365Z,23.89
2019-04-03T10:34:36.117Z,23.79
2019-04-03T10:35:38.620Z,23.84
2019-04-03T10:36:41.600Z,23.39
2019-04-03T10:37:39.944Z,23.42
2019-04-03T10:38:42.402Z,23.47
2019-04-03T10:39:44.262Z,23.45
2019-04-03T10:40:43.929Z,23.57
2019-04-03T10:41:45.356Z,23.49
2019-04-03T10:42:47.215Z,23.23
2019-04-03T10:43:48.161Z,23.26
2019-04-03T10:44:49.566Z,23.09
2019-04-03T10:45:50.979Z,23.00
2019-04-03T10:46:52.385Z,23.14
2019-04-03T10:47:55.894Z,23.34
2019-04-03T10:48:55.161Z,23.54
2019-04-03T10:49:56.564Z,23.57
2019-04-03T10:50:57.984Z,23.50
2019-04-03T10:51:59.476Z,23.56
2019-04-03T10:53:01.059Z,23.56
2019-04-03T10:54:02.153Z,23.57
2019-04-03T10:55:03.597Z,23.57
2019-04-03T10:56:04.963Z,23.74
2019-04-03T10:57:06.426Z,23.94
2019-04-03T10:58:08.520Z,23.87
2019-04-03T10:59:11.524Z,23.87
2019-04-03T11:00:10.543Z,23.56
2019-04-03T11:01:12.215Z,23.29
2019-04-03T11:02:13.336Z,23.25
2019-04-03T11:03:14.773Z,23.25
2019-04-03T11:04:16.196Z,23.32
2019-04-03T11:05:17.610Z,23.52
2019-04-03T11:06:19.131Z,23.42
2019-04-03T11:07:20.445Z,23.34
2019-04-03T11:08:21.865Z,23.37
2019-04-03T11:09:23.283Z,23.16
2019-04-03T11:10:25.254Z,23.15
2019-04-03T11:11:27.199Z,23.35
2019-04-03T11:12:27.471Z,23.54
2019-04-03T11:13:29.093Z,23.64
2019-04-03T11:14:30.293Z,23.81
2019-04-03T11:15:31.726Z,23.92
2019-04-03T11:16:33.227Z,23.99
2019-04-03T11:17:34.602Z,24.06
2019-04-03T11:18:36.027Z,24.26
2019-04-03T11:19:38.179Z,24.23
2019-04-03T11:20:40.424Z,24.11
2019-04-03T11:21:43.255Z,23.96
2019-04-03T11:22:42.672Z,23.62
2019-04-03T11:23:45.325Z,23.77
2019-04-03T11:24:44.433Z,23.74
2019-04-03T11:25:46.278Z,23.68
2019-04-03T11:26:47.335Z,23.96
2019-04-03T11:27:48.624Z,24.04
2019-04-03T11:28:50.327Z,24.12
2019-04-03T11:29:51.626Z,24.30
2019-04-03T11:30:53.126Z,23.99
2019-04-03T11:31:55.171Z,23.96
2019-04-03T11:32:56.583Z,23.96
2019-04-03T11:33:58.379Z,24.08
2019-04-03T11:35:00.047Z,23.99
2019-04-03T11:36:01.515Z,23.96
2019-04-03T11:37:02.927Z,24.04
2019-04-03T11:38:13.159Z,24.05
2019-04-03T11:39:12.370Z,23.82
2019-04-03T11:40:07.347Z,23.31
2019-04-03T11:41:14.535Z,23.21
2019-04-03T11:42:09.967Z,23.18
2019-04-03T11:43:11.369Z,23.06
2019-04-03T11:44:12.851Z,22.88
2019-04-03T11:45:14.200Z,22.85
2019-04-03T11:46:15.631Z,22.79
2019-04-03T11:47:17.022Z,22.79
2019-04-03T11:48:18.433Z,22.82
2019-04-03T11:49:20.791Z,22.64
2019-04-03T11:50:23.882Z,22.56
2019-04-03T11:51:22.618Z,22.52
2019-04-03T11:52:24.081Z,22.49
2019-04-03T11:53:26.434Z,22.45
2019-04-03T11:54:27.871Z,22.48
2019-04-03T11:55:29.362Z,22.46
2019-04-03T11:56:30.738Z,22.52
2019-04-03T11:57:32.127Z,22.38
2019-04-03T11:58:33.546Z,22.48
2019-04-03T11:59:34.950Z,22.52
2019-04-03T12:00:36.351Z,22.57
2019-04-03T12:01:37.783Z,22.66
2019-04-03T12:02:42.198Z,22.56
2019-04-03T12:03:42.215Z,22.42
2019-04-03T12:04:44.470Z,22.38
2019-04-03T12:05:45.648Z,22.26
2019-04-03T12:06:45.605Z,22.30
2019-04-03T12:07:47.053Z,22.41
2019-04-03T12:08:48.462Z,22.39
2019-04-03T12:09:49.863Z,22.38
2019-04-03T12:10:51.322Z,22.52
2019-04-03T12:11:54.522Z,22.42
2019-04-03T12:12:54.115Z,22.42
2019-04-03T12:13:55.521Z,22.44
2019-04-03T12:14:56.959Z,22.30
2019-04-03T12:15:58.835Z,22.33
2019-04-03T12:17:00.189Z,22.31
2019-04-03T12:18:02.188Z,22.12
2019-04-03T12:19:02.871Z,22.06
2019-04-03T12:20:04.250Z,22.19
2019-04-03T12:21:05.304Z,22.14
2019-04-03T12:22:06.709Z,22.11
2019-04-03T12:23:08.170Z,22.11
2019-04-03T12:24:09.550Z,22.12
2019-04-03T12:25:10.961Z,22.11
2019-04-03T12:26:12.962Z,22.11
2019-04-03T12:27:14.047Z,22.09
2019-04-03T12:28:17.760Z,22.31
2019-04-03T12:29:16.788Z,22.38
2019-04-03T12:30:17.868Z,22.44
2019-04-03T12:31:19.330Z,22.48
2019-04-03T12:32:20.685Z,22.52
2019-04-03T12:33:22.276Z,22.67
2019-04-03T12:34:23.895Z,22.70
2019-04-03T12:35:25.054Z,22.75
2019-04-03T12:36:27.576Z,22.70
2019-04-03T12:37:27.929Z,22.42
2019-04-03T12:38:28.933Z,22.35
2019-04-03T12:39:30.329Z,22.33
2019-04-03T12:40:32.770Z,22.15
2019-04-03T12:41:33.917Z,22.17
2019-04-03T12:42:34.456Z,22.24
2019-04-03T12:43:36.170Z,22.36
2019-04-03T12:44:37.228Z,22.24
2019-04-03T12:45:38.938Z,22.31
2019-04-03T12:46:41.321Z,22.44
2019-04-03T12:47:43.686Z,22.51
2019-04-03T12:48:42.748Z,22.56
2019-04-03T12:49:44.431Z,22.45
2019-04-03T12:50:45.754Z,22.41
2019-04-03T12:51:46.904Z,22.36
2019-04-03T12:52:48.429Z,22.15
2019-04-03T12:53:49.899Z,22.26
2019-04-03T12:54:52.806Z,22.21
2019-04-03T12:55:52.458Z,22.24
2019-04-03T12:56:53.847Z,22.30
2019-04-03T12:57:55.293Z,22.23
2019-04-03T12:58:56.676Z,22.23
2019-04-03T12:59:58.079Z,22.31
2019-04-03T13:00:59.479Z,22.23
2019-04-03T13:02:00.885Z,22.26
2019-04-03T13:03:02.397Z,22.36
2019-04-03T13:04:03.653Z,22.35
2019-04-03T13:05:06.199Z,22.31
2019-04-03T13:06:06.966Z,22.29
2019-04-03T13:07:07.781Z,22.30
2019-04-03T13:08:09.183Z,22.19
2019-04-03T13:09:10.752Z,22.20
2019-04-03T13:10:12.171Z,21.86
2019-04-03T13:11:13.337Z,21.82
2019-04-03T13:12:15.145Z,21.71
2019-04-03T13:13:16.134Z,21.53
2019-04-03T13:14:24.143Z,21.45
2019-04-03T13:15:18.842Z,21.36
2019-04-03T13:16:21.421Z,21.31
2019-04-03T13:17:21.608Z,21.22
2019-04-03T13:18:23.231Z,21.19